createdAt,value
2024-03-14T00:02:58.564Z,686.84
2024-03-14T00:06:08.323Z,701.97
2024-03-14T00:09:15.734Z,757.48
2024-03-14T00:12:22.298Z,882.43
2024-03-14T00:15:28.698Z,637.57
2024-03-14T00:18:34.608Z,596.94
2024-03-14T00:21:44.396Z,637.85
2024-03-14T00:24:51.352Z,630.50
2024-03-14T00:27:58.860Z,666.54
2024-03-14T00:31:05.579Z,674.68
2024-03-14T00:34:13.582Z,633.61
2024-03-14T00:37:21.697Z,621.34
2024-03-14T00:40:28.014Z,667.53
2024-03-14T00:43:34.459Z,666.30
2024-03-14T00:46:41.594Z,665.34
2024-03-14T00:49:47.006Z,670.36
2024-03-14T00:52:55.915Z,722.34
2024-03-14T00:56:03.222Z,751.77
2024-03-14T00:59:11.105Z,730.85
2024-03-14T01:02:16.730Z,682.46
2024-03-14T01:05:22.920Z,695.13
2024-03-14T01:08:31.654Z,682.48
2024-03-14T01:11:37.844Z,694.87
2024-03-14T01:14:43.280Z,679.57
2024-03-14T01:17:49.627Z,663.17
2024-03-14T01:20:55.426Z,722.59
2024-03-14T01:24:05.134Z,745.58
2024-03-14T01:27:11.009Z,768.05
2024-03-14T01:30:17.582Z,758.03
2024-03-14T01:33:23.162Z,835.40
2024-03-14T01:36:30.124Z,816.12
2024-03-14T01:39:39.006Z,813.83
2024-03-14T01:42:47.554Z,788.09
2024-03-14T01:45:52.889Z,762.73
2024-03-14T01:48:59.715Z,726.65
2024-03-14T01:52:05.469Z,731.39
2024-03-14T01:55:14.919Z,744.60
2024-03-14T01:58:27.913Z,675.61
2024-03-14T02:01:34.157Z,659.14
2024-03-14T02:04:57.134Z,671.86
2024-03-14T02:08:03.356Z,668.67
2024-03-14T02:11:14.241Z,655.26
2024-03-14T02:14:20.403Z,688.12
2024-03-14T02:17:25.785Z,738.51
2024-03-14T02:20:32.122Z,741.62
2024-03-14T02:23:40.236Z,704.32
2024-03-14T02:26:46.665Z,720.99
2024-03-14T02:29:52.071Z,777.90
2024-03-14T02:32:58.290Z,763.97
2024-03-14T02:36:04.247Z,725.71
2024-03-14T02:39:13.004Z,705.43
2024-03-14T02:42:19.377Z,694.97
2024-03-14T02:45:26.046Z,687.27
2024-03-14T02:48:32.397Z,679.68
2024-03-14T02:51:37.791Z,661.22
2024-03-14T02:54:46.849Z,666.90
2024-03-14T02:57:52.213Z,676.79
2024-03-14T03:00:58.837Z,665.25
2024-03-14T03:04:04.429Z,668.05
2024-03-14T03:07:11.228Z,652.82
2024-03-14T03:10:23.965Z,640.61
2024-03-14T03:13:30.304Z,625.93
2024-03-14T03:16:35.715Z,623.22
2024-03-14T03:19:42.054Z,621.50
2024-03-14T03:23:00.163Z,613.28
2024-03-14T03:26:09.580Z,642.02
2024-03-14T03:29:15.557Z,672.48
2024-03-14T03:32:22.189Z,706.81
2024-03-14T03:35:27.530Z,706.80
2024-03-14T03:38:33.868Z,660.34
2024-03-14T03:41:39.240Z,671.96
2024-03-14T03:44:46.492Z,713.26
2024-03-14T03:47:49.410Z,705.38
2024-03-14T03:50:56.405Z,704.01
2024-03-14T03:53:59.172Z,708.35
2024-03-14T03:57:08.448Z,712.13
2024-03-14T04:00:43.629Z,732.06
2024-03-14T04:03:52.437Z,708.23
2024-03-14T04:06:57.841Z,684.73
2024-03-14T04:10:04.403Z,690.83
2024-03-14T04:13:16.721Z,668.64
2024-03-14T04:16:23.171Z,646.89
2024-03-14T04:19:28.467Z,644.56
2024-03-14T04:22:35.882Z,639.36
2024-03-14T04:25:42.321Z,620.09
2024-03-14T04:28:51.410Z,622.63
2024-03-14T04:31:58.379Z,624.88
2024-03-14T04:35:05.455Z,637.67
2024-03-14T04:38:10.902Z,660.66
2024-03-14T04:41:18.620Z,666.52
2024-03-14T04:44:28.263Z,666.58
2024-03-14T04:47:34.533Z,654.68
2024-03-14T04:50:41.692Z,636.89
2024-03-14T04:53:48.002Z,621.32
2024-03-14T04:56:53.471Z,619.81
2024-03-14T05:00:02.478Z,610.13
2024-03-14T05:03:08.823Z,599.55
2024-03-14T05:06:15.048Z,597.71
2024-03-14T05:09:23.311Z,587.16
2024-03-14T05:12:29.813Z,594.16
2024-03-14T05:15:38.462Z,602.51
2024-03-14T05:18:45.556Z,617.48
2024-03-14T05:21:52.144Z,631.13
2024-03-14T05:25:00.052Z,648.32
2024-03-14T05:28:08.036Z,648.42
2024-03-14T05:31:20.769Z,661.49
2024-03-14T05:34:27.069Z,641.89
2024-03-14T05:37:33.352Z,645.78
2024-03-14T05:40:42.601Z,644.81
2024-03-14T05:43:49.287Z,652.02
2024-03-14T05:47:00.253Z,694.80
2024-03-14T05:50:11.901Z,669.18
2024-03-14T05:53:21.422Z,683.35
2024-03-14T05:56:27.667Z,680.30
2024-03-14T05:59:34.412Z,659.38
2024-03-14T06:02:43.378Z,641.39
2024-03-14T06:05:51.449Z,639.77
2024-03-14T06:08:57.729Z,658.34
2024-03-14T06:12:03.405Z,671.91
2024-03-14T06:15:13.544Z,677.61
2024-03-14T06:18:23.444Z,697.66
2024-03-14T06:21:31.299Z,701.68
2024-03-14T06:24:36.704Z,718.37
2024-03-14T06:27:43.222Z,636.84
2024-03-14T06:30:51.151Z,650.02
2024-03-14T06:34:00.001Z,640.30
2024-03-14T06:37:05.728Z,628.06
2024-03-14T06:40:15.584Z,606.33
2024-03-14T06:43:22.943Z,607.32
2024-03-14T06:46:30.531Z,595.40
2024-03-14T06:49:40.120Z,600.68
2024-03-14T06:52:46.367Z,611.72
2024-03-14T06:55:52.640Z,619.55
2024-03-14T06:58:58.976Z,610.32
2024-03-14T07:02:04.249Z,620.45
2024-03-14T07:05:17.080Z,610.87
2024-03-14T07:08:22.774Z,615.88
2024-03-14T07:11:30.220Z,629.89
2024-03-14T07:14:35.683Z,631.97
2024-03-14T07:17:42.702Z,629.58
2024-03-14T07:20:51.132Z,623.97
2024-03-14T07:23:57.637Z,639.00
2024-03-14T07:27:04.968Z,662.00
2024-03-14T07:30:16.497Z,671.88
2024-03-14T07:33:22.234Z,694.53
2024-03-14T07:36:32.092Z,694.95
2024-03-14T07:39:37.871Z,678.48
2024-03-14T07:42:44.751Z,681.04
2024-03-14T07:45:50.547Z,689.87
2024-03-14T07:48:57.487Z,675.04
2024-03-14T07:52:07.071Z,670.15
2024-03-14T07:55:13.262Z,690.31
2024-03-14T07:58:18.724Z,679.59
2024-03-14T08:01:29.441Z,660.20
2024-03-14T08:04:36.229Z,657.12
2024-03-14T08:07:44.972Z,663.16
2024-03-14T08:10:50.477Z,617.58
2024-03-14T08:14:00.333Z,592.86
2024-03-14T08:17:12.908Z,603.96
2024-03-14T08:20:23.466Z,589.64
2024-03-14T08:23:33.777Z,533.09
2024-03-14T08:26:40.201Z,501.90
2024-03-14T08:29:46.312Z,492.63
2024-03-14T08:32:53.512Z,480.05
2024-03-14T08:35:58.942Z,472.41
2024-03-14T08:39:08.157Z,424.81
2024-03-14T08:42:13.981Z,392.86
2024-03-14T08:45:20.364Z,374.51
2024-03-14T08:48:26.215Z,365.96
2024-03-14T08:51:33.495Z,371.57
2024-03-14T08:54:46.528Z,390.77
2024-03-14T08:57:53.206Z,374.39
2024-03-14T09:00:59.810Z,381.47
2024-03-14T09:04:08.965Z,377.91
2024-03-14T09:07:16.069Z,382.01
2024-03-14T09:10:27.492Z,312.51
2024-03-14T09:13:33.455Z,338.16
2024-03-14T09:16:40.034Z,285.80
2024-03-14T09:19:45.665Z,282.59
2024-03-14T09:22:55.776Z,288.05
2024-03-14T09:26:03.881Z,277.97
2024-03-14T09:29:10.090Z,272.53
2024-03-14T09:32:15.406Z,257.84
2024-03-14T09:35:28.432Z,253.68
2024-03-14T09:38:36.351Z,253.54
2024-03-14T09:41:47.050Z,248.67
2024-03-14T09:44:52.490Z,233.25
2024-03-14T09:48:00.497Z,227.96
2024-03-14T09:51:13.579Z,233.52
2024-03-14T09:54:21.489Z,234.86
2024-03-14T09:57:31.165Z,222.97
2024-03-14T10:00:37.637Z,208.21
2024-03-14T10:03:43.549Z,196.54
2024-03-14T10:06:49.994Z,189.29
2024-03-14T10:09:55.529Z,172.40
2024-03-14T10:13:04.624Z,162.56
2024-03-14T10:16:10.447Z,164.60
2024-03-14T10:19:17.205Z,171.36
2024-03-14T10:22:22.806Z,165.10
2024-03-14T10:25:29.762Z,156.01
2024-03-14T10:28:41.009Z,152.22
2024-03-14T10:31:47.577Z,136.48
2024-03-14T10:34:53.322Z,145.18
2024-03-14T10:38:02.373Z,151.69
2024-03-14T10:41:11.335Z,138.17
2024-03-14T10:44:26.363Z,129.35
2024-03-14T10:47:34.301Z,139.56
2024-03-14T10:50:42.601Z,136.66
2024-03-14T10:53:51.848Z,129.45
2024-03-14T10:57:01.181Z,126.01
2024-03-14T11:00:15.593Z,132.14
2024-03-14T11:03:24.118Z,137.33
2024-03-14T11:06:41.128Z,129.91
2024-03-14T11:10:09.831Z,132.03
2024-03-14T11:13:27.765Z,101.71
2024-03-14T11:16:38.853Z,110.15
2024-03-14T11:19:54.338Z,100.71
2024-03-14T11:23:07.153Z,109.33
2024-03-14T11:26:20.768Z,107.44
2024-03-14T11:29:28.677Z,106.67
2024-03-14T11:32:36.881Z,90.54
2024-03-14T11:35:45.482Z,87.20
2024-03-14T11:38:52.090Z,96.84
2024-03-14T11:42:12.894Z,90.71
2024-03-14T11:45:20.215Z,82.04
2024-03-14T11:48:32.838Z,67.70
2024-03-14T11:51:42.779Z,66.88
2024-03-14T11:54:49.852Z,71.86
2024-03-14T11:57:55.710Z,86.38
2024-03-14T12:01:02.194Z,94.17
2024-03-14T12:04:14.946Z,88.14
2024-03-14T12:07:22.392Z,81.59
2024-03-14T12:10:28.286Z,83.35
2024-03-14T12:13:34.603Z,89.55
2024-03-14T12:16:47.538Z,86.81
2024-03-14T12:20:02.532Z,88.23
2024-03-14T12:23:10.429Z,91.62
2024-03-14T12:26:16.801Z,93.61
2024-03-14T12:29:22.525Z,90.22
2024-03-14T12:32:31.362Z,91.60
2024-03-14T12:35:39.704Z,88.22
2024-03-14T12:38:52.002Z,89.14
2024-03-14T12:41:58.102Z,92.25
2024-03-14T12:45:04.783Z,88.41
2024-03-14T12:48:12.472Z,91.32
2024-03-14T12:51:25.804Z,84.03
2024-03-14T12:54:39.879Z,90.74
2024-03-14T12:57:48.595Z,90.83
2024-03-14T13:00:58.398Z,89.81
2024-03-14T13:04:08.484Z,90.51
2024-03-14T13:07:21.069Z,93.02
2024-03-14T13:10:28.328Z,80.69
2024-03-14T13:13:34.895Z,84.75
2024-03-14T13:16:42.241Z,88.76
2024-03-14T13:19:59.372Z,90.39
2024-03-14T13:23:08.223Z,91.05
2024-03-14T13:26:19.291Z,93.52
2024-03-14T13:29:26.865Z,90.71
2024-03-14T13:32:32.264Z,94.25
2024-03-14T13:35:41.919Z,91.01
2024-03-14T13:38:50.674Z,91.19
2024-03-14T13:41:59.739Z,88.57
2024-03-14T13:45:09.155Z,89.11
2024-03-14T13:48:19.280Z,94.39
2024-03-14T13:51:24.740Z,93.19
2024-03-14T13:54:34.715Z,94.87
2024-03-14T13:57:40.547Z,91.05
2024-03-14T14:00:51.684Z,94.46
2024-03-14T14:04:00.910Z,94.21
2024-03-14T14:07:07.419Z,92.45
2024-03-14T14:10:16.262Z,92.56
2024-03-14T14:13:22.716Z,92.76
2024-03-14T14:16:30.589Z,163.87
2024-03-14T14:19:38.181Z,99.45
2024-03-14T14:22:43.669Z,98.97
2024-03-14T14:25:53.269Z,96.04
2024-03-14T14:28:59.162Z,97.06
2024-03-14T14:32:05.688Z,95.15
2024-03-14T14:35:11.637Z,101.42
2024-03-14T14:38:20.036Z,111.08
2024-03-14T14:41:28.632Z,123.44
2024-03-14T14:44:34.857Z,134.40
2024-03-14T14:47:42.203Z,150.62
2024-03-14T14:50:48.745Z,148.00
2024-03-14T14:53:54.118Z,150.20
2024-03-14T14:57:07.235Z,154.78
2024-03-14T15:00:15.871Z,146.49
2024-03-14T15:03:23.698Z,143.22
2024-03-14T15:06:29.256Z,154.70
2024-03-14T15:09:35.763Z,171.06
2024-03-14T15:12:50.665Z,167.43
2024-03-14T15:16:09.431Z,170.53
2024-03-14T15:19:17.036Z,176.53
2024-03-14T15:22:23.958Z,173.46
2024-03-14T15:25:29.962Z,178.96
2024-03-14T15:28:38.950Z,178.73
2024-03-14T15:31:44.414Z,177.66
2024-03-14T15:34:50.920Z,181.71
2024-03-14T15:37:59.793Z,207.20
2024-03-14T15:41:06.063Z,206.81
2024-03-14T15:44:14.231Z,183.82
2024-03-14T15:47:20.331Z,193.99
2024-03-14T15:50:25.910Z,207.98
2024-03-14T15:53:34.153Z,191.08
2024-03-14T15:56:39.506Z,201.85
2024-03-14T15:59:49.018Z,198.61
2024-03-14T16:02:56.706Z,202.04
2024-03-14T16:06:05.391Z,203.07
2024-03-14T16:09:11.457Z,211.51
2024-03-14T16:12:18.213Z,222.56
2024-03-14T16:15:26.278Z,228.44
2024-03-14T16:18:35.466Z,228.24
2024-03-14T16:21:41.953Z,236.76
2024-03-14T16:24:48.220Z,239.61
2024-03-14T16:27:54.294Z,248.41
2024-03-14T16:31:06.857Z,248.33
2024-03-14T16:34:12.406Z,258.25
2024-03-14T16:37:18.796Z,277.27
2024-03-14T16:40:24.175Z,285.82
2024-03-14T16:43:30.296Z,288.11
2024-03-14T16:46:39.851Z,291.25
2024-03-14T16:49:46.114Z,305.61
2024-03-14T16:52:52.976Z,303.76
2024-03-14T16:55:59.146Z,304.81
2024-03-14T16:59:07.593Z,302.36
2024-03-14T17:02:18.116Z,302.78
2024-03-14T17:05:23.748Z,310.30
2024-03-14T17:08:30.126Z,313.42
2024-03-14T17:11:36.144Z,316.14
2024-03-14T17:14:42.477Z,337.35
2024-03-14T17:17:51.108Z,367.14
2024-03-14T17:21:00.073Z,359.39
2024-03-14T17:24:05.872Z,358.30
2024-03-14T17:27:13.914Z,359.55
2024-03-14T17:30:19.633Z,398.31
2024-03-14T17:33:29.754Z,372.09
2024-03-14T17:36:35.330Z,330.91
2024-03-14T17:39:43.202Z,327.56
2024-03-14T17:42:50.294Z,324.73
2024-03-14T17:45:57.055Z,318.47
2024-03-14T17:49:07.288Z,332.20
2024-03-14T17:52:14.006Z,347.95
2024-03-14T17:55:19.362Z,347.56
2024-03-14T17:58:25.558Z,350.76
2024-03-14T18:01:31.707Z,364.54
2024-03-14T18:04:40.573Z,365.57
2024-03-14T18:07:48.294Z,367.75
2024-03-14T18:10:54.770Z,371.94
2024-03-14T18:14:00.223Z,357.17
2024-03-14T18:17:06.738Z,373.65
2024-03-14T18:20:15.176Z,366.29
2024-03-14T18:23:21.525Z,379.81
2024-03-14T18:26:27.199Z,391.49
2024-03-14T18:29:33.415Z,379.79
2024-03-14T18:32:44.607Z,386.22
2024-03-14T18:35:54.377Z,375.74
2024-03-14T18:39:00.696Z,367.13
2024-03-14T18:42:10.791Z,361.30
2024-03-14T18:45:18.641Z,362.34
2024-03-14T18:48:25.639Z,364.79
2024-03-14T18:51:33.619Z,390.35
2024-03-14T18:54:48.213Z,406.63
2024-03-14T18:57:55.779Z,397.48
2024-03-14T19:01:08.114Z,372.58
2024-03-14T19:04:13.866Z,332.11
2024-03-14T19:07:22.757Z,325.23
2024-03-14T19:10:30.227Z,320.60
2024-03-14T19:13:40.423Z,314.46
2024-03-14T19:16:47.394Z,317.47
2024-03-14T19:19:54.313Z,307.01
2024-03-14T19:23:03.899Z,313.52
2024-03-14T19:26:10.622Z,327.69
2024-03-14T19:29:17.355Z,336.88
2024-03-14T19:32:23.607Z,348.65
2024-03-14T19:35:29.493Z,363.25
2024-03-14T19:38:38.542Z,380.54
2024-03-14T19:41:44.106Z,362.91
2024-03-14T19:44:50.442Z,374.64
2024-03-14T19:47:58.284Z,377.59
2024-03-14T19:51:05.219Z,379.54
2024-03-14T19:54:13.166Z,383.02
2024-03-14T19:57:19.378Z,393.80
2024-03-14T20:00:24.808Z,391.94
2024-03-14T20:03:30.999Z,383.49
2024-03-14T20:06:36.394Z,372.79
2024-03-14T20:09:45.358Z,379.37
2024-03-14T20:12:52.066Z,385.70
2024-03-14T20:15:59.202Z,390.83
2024-03-14T20:19:06.017Z,399.63
2024-03-14T20:22:14.064Z,405.88
2024-03-14T20:25:24.089Z,404.49
2024-03-14T20:28:30.772Z,396.37
2024-03-14T20:31:36.221Z,407.26
2024-03-14T20:34:46.923Z,404.20
2024-03-14T20:37:54.008Z,416.62
2024-03-14T20:41:06.935Z,428.70
2024-03-14T20:44:13.292Z,427.42
2024-03-14T20:47:20.445Z,424.85
2024-03-14T20:50:26.074Z,408.57
2024-03-14T20:53:35.211Z,406.71
2024-03-14T20:56:51.260Z,398.52
2024-03-14T21:00:02.097Z,404.80
2024-03-14T21:03:09.597Z,398.65
2024-03-14T21:06:15.941Z,408.56
2024-03-14T21:09:26.201Z,388.99
2024-03-14T21:12:39.626Z,383.60
2024-03-14T21:15:45.816Z,380.87
2024-03-14T21:18:55.387Z,398.71
2024-03-14T21:22:00.772Z,379.30
2024-03-14T21:25:08.571Z,395.59
2024-03-14T21:28:16.528Z,394.08
2024-03-14T21:31:22.889Z,394.63
2024-03-14T21:34:29.234Z,380.53
2024-03-14T21:37:35.516Z,373.24
2024-03-14T21:40:40.801Z,377.42
2024-03-14T21:43:49.898Z,379.40
2024-03-14T21:46:56.218Z,396.60
2024-03-14T21:50:04.869Z,367.92
2024-03-14T21:53:10.433Z,358.79
2024-03-14T21:56:16.763Z,355.65
2024-03-14T21:59:24.726Z,363.29
2024-03-14T22:02:30.869Z,355.74
2024-03-14T22:05:39.197Z,351.80
2024-03-14T22:08:45.691Z,354.52
2024-03-14T22:11:51.456Z,352.34
2024-03-14T22:15:01.271Z,353.84
2024-03-14T22:18:09.000Z,348.96
2024-03-14T22:21:15.880Z,366.54
2024-03-14T22:24:21.223Z,370.53
2024-03-14T22:27:27.441Z,387.13
2024-03-14T22:30:35.497Z,388.64
2024-03-14T22:33:42.509Z,374.24
2024-03-14T22:36:47.978Z,364.02
2024-03-14T22:39:54.286Z,374.32
2024-03-14T22:42:59.941Z,377.13
2024-03-14T22:46:10.242Z,380.21
2024-03-14T22:49:15.818Z,380.00
2024-03-14T22:52:22.670Z,391.01
2024-03-14T22:55:28.004Z,372.29
2024-03-14T22:58:34.175Z,374.84
2024-03-14T23:01:43.593Z,373.80
2024-03-14T23:04:49.865Z,381.39
2024-03-14T23:07:55.579Z,388.26
2024-03-14T23:11:01.869Z,392.61
2024-03-14T23:14:08.081Z,384.64
2024-03-14T23:17:19.352Z,380.22
2024-03-14T23:20:28.197Z,370.26
2024-03-14T23:23:34.367Z,366.74
2024-03-14T23:26:39.754Z,373.60
2024-03-14T23:29:45.891Z,374.51
2024-03-14T23:32:54.271Z,382.12
2024-03-14T23:36:00.534Z,379.19
2024-03-14T23:39:06.663Z,382.28
2024-03-14T23:42:13.486Z,386.40
2024-03-14T23:45:20.057Z,390.24
2024-03-14T23:48:31.212Z,391.88
2024-03-14T23:51:36.694Z,393.11
2024-03-14T23:54:43.247Z,398.56
2024-03-14T23:57:48.932Z,389.80
